sensor_id;sensor_type;location;lat;lon;timestamp;temperature;humidity
43894;DHT22;29556;50.846;4.442;2023-02-24T00:01:34;9.70;80.10
43894;DHT22;29556;50.846;4.442;2023-02-24T00:04:09;9.70;80.10
43894;DHT22;29556;50.846;4.442;2023-02-24T00:06:38;9.70;80.60
43894;DHT22;29556;50.846;4.442;2023-02-24T00:09:16;9.60;80.60
43894;DHT22;29556;50.846;4.442;2023-02-24T00:14:24;9.70;80.00
43894;DHT22;29556;50.846;4.442;2023-02-24T00:16:51;9.70;79.90
43894;DHT22;29556;50.846;4.442;2023-02-24T00:19:20;9.70;80.20
43894;DHT22;29556;50.846;4.442;2023-02-24T00:21:47;9.70;80.20
43894;DHT22;29556;50.846;4.442;2023-02-24T00:24:13;9.60;80.20
43894;DHT22;29556;50.846;4.442;2023-02-24T00:26:39;9.60;80.20
43894;DHT22;29556;50.846;4.442;2023-02-24T00:29:07;9.50;80.20
43894;DHT22;29556;50.846;4.442;2023-02-24T00:31:34;9.60;80.40
43894;DHT22;29556;50.846;4.442;2023-02-24T00:34:04;9.40;80.60
43894;DHT22;29556;50.846;4.442;2023-02-24T00:36:31;9.50;80.10
43894;DHT22;29556;50.846;4.442;2023-02-24T00:39:05;9.40;81.30
43894;DHT22;29556;50.846;4.442;2023-02-24T00:41:35;9.40;80.50
43894;DHT22;29556;50.846;4.442;2023-02-24T00:44:04;9.40;80.30
43894;DHT22;29556;50.846;4.442;2023-02-24T00:46:38;9.30;80.40
43894;DHT22;29556;50.846;4.442;2023-02-24T00:49:07;9.40;80.70
43894;DHT22;29556;50.846;4.442;2023-02-24T00:51:39;9.40;80.60
43894;DHT22;29556;50.846;4.442;2023-02-24T00:54:06;9.40;81.00
43894;DHT22;29556;50.846;4.442;2023-02-24T00:56:33;9.40;80.60
43894;DHT22;29556;50.846;4.442;2023-02-24T00:59:00;9.30;80.50
43894;DHT22;29556;50.846;4.442;2023-02-24T01:01:31;9.40;80.80
43894;DHT22;29556;50.846;4.442;2023-02-24T01:03:59;9.30;81.90
43894;DHT22;29556;50.846;4.442;2023-02-24T01:06:27;9.30;81.00
43894;DHT22;29556;50.846;4.442;2023-02-24T01:08:54;9.30;80.90
43894;DHT22;29556;50.846;4.442;2023-02-24T01:11:23;9.30;80.80
43894;DHT22;29556;50.846;4.442;2023-02-24T01:14:25;9.30;81.30
43894;DHT22;29556;50.846;4.442;2023-02-24T01:16:52;9.40;81.30
43894;DHT22;29556;50.846;4.442;2023-02-24T01:19:29;9.30;81.00
43894;DHT22;29556;50.846;4.442;2023-02-24T01:22:07;9.40;81.20
43894;DHT22;29556;50.846;4.442;2023-02-24T01:24:37;9.40;80.70
43894;DHT22;29556;50.846;4.442;2023-02-24T01:27:03;9.40;81.30
43894;DHT22;29556;50.846;4.442;2023-02-24T01:29:29;9.40;81.10
43894;DHT22;29556;50.846;4.442;2023-02-24T01:31:55;9.40;81.30
43894;DHT22;29556;50.846;4.442;2023-02-24T01:34:25;9.40;81.10
43894;DHT22;29556;50.846;4.442;2023-02-24T01:36:51;9.30;81.30
43894;DHT22;29556;50.846;4.442;2023-02-24T01:39:17;9.30;80.90
43894;DHT22;29556;50.846;4.442;2023-02-24T01:41:47;9.40;80.90
43894;DHT22;29556;50.846;4.442;2023-02-24T01:46:47;9.40;81.30
43894;DHT22;29556;50.846;4.442;2023-02-24T01:51:58;9.40;81.30
43894;DHT22;29556;50.846;4.442;2023-02-24T01:54:33;9.40;81.10
43894;DHT22;29556;50.846;4.442;2023-02-24T01:56:59;9.40;81.00
43894;DHT22;29556;50.846;4.442;2023-02-24T01:59:28;9.40;81.50
43894;DHT22;29556;50.846;4.442;2023-02-24T02:02:00;9.50;81.50
43894;DHT22;29556;50.846;4.442;2023-02-24T02:07:16;9.40;81.10
43894;DHT22;29556;50.846;4.442;2023-02-24T02:09:43;9.40;80.70
43894;DHT22;29556;50.846;4.442;2023-02-24T02:12:10;9.30;80.90
43894;DHT22;29556;50.846;4.442;2023-02-24T02:14:38;9.20;80.80
43894;DHT22;29556;50.846;4.442;2023-02-24T02:17:28;9.20;80.20
43894;DHT22;29556;50.846;4.442;2023-02-24T02:37:10;9.20;78.40
43894;DHT22;29556;50.846;4.442;2023-02-24T02:45:39;9.20;78.00
43894;DHT22;29556;50.846;4.442;2023-02-24T02:48:19;9.20;78.20
43894;DHT22;29556;50.846;4.442;2023-02-24T02:50:56;9.20;78.30
43894;DHT22;29556;50.846;4.442;2023-02-24T02:54:00;9.30;78.00
43894;DHT22;29556;50.846;4.442;2023-02-24T02:57:03;9.20;78.00
43894;DHT22;29556;50.846;4.442;2023-02-24T02:59:34;9.20;77.90
43894;DHT22;29556;50.846;4.442;2023-02-24T03:02:03;9.20;77.60
43894;DHT22;29556;50.846;4.442;2023-02-24T03:04:46;9.10;77.80
43894;DHT22;29556;50.846;4.442;2023-02-24T03:07:16;9.10;77.40
43894;DHT22;29556;50.846;4.442;2023-02-24T03:09:49;9.10;77.20
43894;DHT22;29556;50.846;4.442;2023-02-24T03:12:19;9.10;77.00
43894;DHT22;29556;50.846;4.442;2023-02-24T03:14:50;9.10;76.60
43894;DHT22;29556;50.846;4.442;2023-02-24T03:17:21;9.10;76.00
43894;DHT22;29556;50.846;4.442;2023-02-24T03:19:57;9.10;76.00
43894;DHT22;29556;50.846;4.442;2023-02-24T03:22:36;9.10;76.30
43894;DHT22;29556;50.846;4.442;2023-02-24T03:25:04;9.10;75.70
43894;DHT22;29556;50.846;4.442;2023-02-24T03:27:40;9.10;76.00
43894;DHT22;29556;50.846;4.442;2023-02-24T03:30:10;9.10;76.00
43894;DHT22;29556;50.846;4.442;2023-02-24T03:32:40;9.00;75.20
43894;DHT22;29556;50.846;4.442;2023-02-24T03:35:39;9.00;75.10
43894;DHT22;29556;50.846;4.442;2023-02-24T03:38:06;9.00;75.20
43894;DHT22;29556;50.846;4.442;2023-02-24T03:40:36;9.00;75.20
43894;DHT22;29556;50.846;4.442;2023-02-24T03:43:07;9.10;74.80
43894;DHT22;29556;50.846;4.442;2023-02-24T03:45:37;9.00;74.40
43894;DHT22;29556;50.846;4.442;2023-02-24T03:48:08;9.10;74.50
43894;DHT22;29556;50.846;4.442;2023-02-24T03:50:36;9.00;74.20
43894;DHT22;29556;50.846;4.442;2023-02-24T04:01:50;9.00;72.90
43894;DHT22;29556;50.846;4.442;2023-02-24T04:04:58;9.00;73.20
43894;DHT22;29556;50.846;4.442;2023-02-24T04:10:16;9.00;73.50
43894;DHT22;29556;50.846;4.442;2023-02-24T04:15:57;9.00;73.90
43894;DHT22;29556;50.846;4.442;2023-02-24T04:18:27;9.00;73.50
43894;DHT22;29556;50.846;4.442;2023-02-24T04:20:56;9.10;73.70
43894;DHT22;29556;50.846;4.442;2023-02-24T04:23:40;8.90;74.50
43894;DHT22;29556;50.846;4.442;2023-02-24T04:26:09;9.00;74.70
43894;DHT22;29556;50.846;4.442;2023-02-24T04:28:37;8.90;74.30
43894;DHT22;29556;50.846;4.442;2023-02-24T04:31:10;8.90;74.30
43894;DHT22;29556;50.846;4.442;2023-02-24T04:33:42;9.00;75.40
43894;DHT22;29556;50.846;4.442;2023-02-24T04:36:08;8.90;74.90
43894;DHT22;29556;50.846;4.442;2023-02-24T04:38:37;9.00;74.30
43894;DHT22;29556;50.846;4.442;2023-02-24T04:41:03;9.00;74.40
43894;DHT22;29556;50.846;4.442;2023-02-24T04:43:29;8.90;74.10
43894;DHT22;29556;50.846;4.442;2023-02-24T04:45:55;8.90;74.20
43894;DHT22;29556;50.846;4.442;2023-02-24T04:48:22;8.90;75.20
43894;DHT22;29556;50.846;4.442;2023-02-24T04:50:47;9.00;75.60
43894;DHT22;29556;50.846;4.442;2023-02-24T04:53:20;8.90;74.60
43894;DHT22;29556;50.846;4.442;2023-02-24T04:55:51;9.00;75.10
43894;DHT22;29556;50.846;4.442;2023-02-24T04:58:23;8.90;75.80
43894;DHT22;29556;50.846;4.442;2023-02-24T05:00:52;8.80;76.00
43894;DHT22;29556;50.846;4.442;2023-02-24T05:03:19;8.80;75.90
43894;DHT22;29556;50.846;4.442;2023-02-24T05:05:50;8.80;76.00
43894;DHT22;29556;50.846;4.442;2023-02-24T05:08:17;8.70;76.20
43894;DHT22;29556;50.846;4.442;2023-02-24T05:10:45;8.80;75.90
43894;DHT22;29556;50.846;4.442;2023-02-24T05:13:22;8.70;75.70
43894;DHT22;29556;50.846;4.442;2023-02-24T05:15:54;8.80;76.60
43894;DHT22;29556;50.846;4.442;2023-02-24T05:18:21;8.60;76.50
43894;DHT22;29556;50.846;4.442;2023-02-24T05:20:53;8.70;76.90
43894;DHT22;29556;50.846;4.442;2023-02-24T05:23:45;8.60;76.80
43894;DHT22;29556;50.846;4.442;2023-02-24T05:26:21;8.60;77.60
43894;DHT22;29556;50.846;4.442;2023-02-24T05:28:49;8.60;77.70
43894;DHT22;29556;50.846;4.442;2023-02-24T05:31:21;8.70;78.10
43894;DHT22;29556;50.846;4.442;2023-02-24T05:33:51;8.60;77.70
43894;DHT22;29556;50.846;4.442;2023-02-24T05:36:23;8.70;76.50
43894;DHT22;29556;50.846;4.442;2023-02-24T05:38:51;8.60;76.00
43894;DHT22;29556;50.846;4.442;2023-02-24T05:41:24;8.60;75.50
43894;DHT22;29556;50.846;4.442;2023-02-24T05:44:02;8.70;74.70
43894;DHT22;29556;50.846;4.442;2023-02-24T05:46:31;8.60;75.00
43894;DHT22;29556;50.846;4.442;2023-02-24T05:48:59;8.60;75.50
43894;DHT22;29556;50.846;4.442;2023-02-24T05:51:30;8.50;75.90
43894;DHT22;29556;50.846;4.442;2023-02-24T05:54:01;8.40;76.20
43894;DHT22;29556;50.846;4.442;2023-02-24T05:56:33;8.50;76.50
43894;DHT22;29556;50.846;4.442;2023-02-24T05:59:01;8.30;76.10
43894;DHT22;29556;50.846;4.442;2023-02-24T06:01:28;8.20;76.50
43894;DHT22;29556;50.846;4.442;2023-02-24T06:03:55;8.10;76.90
43894;DHT22;29556;50.846;4.442;2023-02-24T06:06:20;8.10;77.20
43894;DHT22;29556;50.846;4.442;2023-02-24T06:08:47;8.10;77.40
43894;DHT22;29556;50.846;4.442;2023-02-24T06:11:18;8.10;77.70
43894;DHT22;29556;50.846;4.442;2023-02-24T06:13:47;8.10;77.40
43894;DHT22;29556;50.846;4.442;2023-02-24T06:16:14;8.10;77.00
43894;DHT22;29556;50.846;4.442;2023-02-24T06:18:47;8.30;77.30
43894;DHT22;29556;50.846;4.442;2023-02-24T06:21:14;8.30;77.00
43894;DHT22;29556;50.846;4.442;2023-02-24T06:23:40;8.20;74.70
43894;DHT22;29556;50.846;4.442;2023-02-24T06:26:06;8.10;74.60
43894;DHT22;29556;50.846;4.442;2023-02-24T06:28:40;8.20;74.40
43894;DHT22;29556;50.846;4.442;2023-02-24T06:31:08;8.10;73.80
43894;DHT22;29556;50.846;4.442;2023-02-24T06:33:39;8.10;73.30
43894;DHT22;29556;50.846;4.442;2023-02-24T06:36:06;8.20;74.10
43894;DHT22;29556;50.846;4.442;2023-02-24T06:38:34;8.00;73.20
43894;DHT22;29556;50.846;4.442;2023-02-24T06:41:01;8.00;73.90
43894;DHT22;29556;50.846;4.442;2023-02-24T06:43:39;8.00;74.10
43894;DHT22;29556;50.846;4.442;2023-02-24T06:46:09;8.10;74.00
43894;DHT22;29556;50.846;4.442;2023-02-24T06:48:36;8.00;73.60
43894;DHT22;29556;50.846;4.442;2023-02-24T06:51:06;8.00;73.90
43894;DHT22;29556;50.846;4.442;2023-02-24T06:53:33;8.00;73.50
43894;DHT22;29556;50.846;4.442;2023-02-24T06:56:12;8.10;72.90
43894;DHT22;29556;50.846;4.442;2023-02-24T06:58:48;8.00;73.40
43894;DHT22;29556;50.846;4.442;2023-02-24T07:01:23;8.00;73.50
43894;DHT22;29556;50.846;4.442;2023-02-24T07:03:57;8.00;73.70
43894;DHT22;29556;50.846;4.442;2023-02-24T07:06:34;8.00;73.80
43894;DHT22;29556;50.846;4.442;2023-02-24T07:09:05;8.00;74.20
43894;DHT22;29556;50.846;4.442;2023-02-24T07:11:37;8.00;73.60
43894;DHT22;29556;50.846;4.442;2023-02-24T07:14:06;7.90;73.10
43894;DHT22;29556;50.846;4.442;2023-02-24T07:16:32;8.00;73.60
43894;DHT22;29556;50.846;4.442;2023-02-24T07:19:02;7.90;73.20
43894;DHT22;29556;50.846;4.442;2023-02-24T07:21:30;8.00;73.50
43894;DHT22;29556;50.846;4.442;2023-02-24T07:24:05;7.90;73.80
43894;DHT22;29556;50.846;4.442;2023-02-24T07:26:31;7.80;73.70
43894;DHT22;29556;50.846;4.442;2023-02-24T07:28:58;7.80;72.90
43894;DHT22;29556;50.846;4.442;2023-02-24T07:31:28;7.80;73.20
43894;DHT22;29556;50.846;4.442;2023-02-24T07:33:56;7.70;72.20
43894;DHT22;29556;50.846;4.442;2023-02-24T07:36:23;7.80;72.30
43894;DHT22;29556;50.846;4.442;2023-02-24T07:38:53;7.60;72.70
43894;DHT22;29556;50.846;4.442;2023-02-24T07:41:21;7.60;72.60
43894;DHT22;29556;50.846;4.442;2023-02-24T07:43:49;7.60;72.30
43894;DHT22;29556;50.846;4.442;2023-02-24T07:46:21;7.60;73.50
43894;DHT22;29556;50.846;4.442;2023-02-24T07:48:50;7.50;73.80
43894;DHT22;29556;50.846;4.442;2023-02-24T07:51:19;7.60;73.50
43894;DHT22;29556;50.846;4.442;2023-02-24T07:53:54;7.70;74.00
43894;DHT22;29556;50.846;4.442;2023-02-24T07:56:21;7.70;73.70
43894;DHT22;29556;50.846;4.442;2023-02-24T07:58:52;7.70;72.50
43894;DHT22;29556;50.846;4.442;2023-02-24T08:01:25;7.70;72.60
43894;DHT22;29556;50.846;4.442;2023-02-24T08:03:54;7.90;72.40
43894;DHT22;29556;50.846;4.442;2023-02-24T08:06:24;7.80;72.30
43894;DHT22;29556;50.846;4.442;2023-02-24T08:09:09;7.80;72.10
43894;DHT22;29556;50.846;4.442;2023-02-24T08:11:57;7.80;71.10
43894;DHT22;29556;50.846;4.442;2023-02-24T08:14:24;7.80;72.00
43894;DHT22;29556;50.846;4.442;2023-02-24T08:16:52;7.80;71.70
43894;DHT22;29556;50.846;4.442;2023-02-24T08:19:25;7.80;71.80
43894;DHT22;29556;50.846;4.442;2023-02-24T08:21:58;7.90;72.20
43894;DHT22;29556;50.846;4.442;2023-02-24T08:24:35;8.20;72.30
43894;DHT22;29556;50.846;4.442;2023-02-24T08:27:01;8.40;71.80
43894;DHT22;29556;50.846;4.442;2023-02-24T08:29:34;8.40;71.80
43894;DHT22;29556;50.846;4.442;2023-02-24T08:32:39;8.40;71.20
43894;DHT22;29556;50.846;4.442;2023-02-24T08:35:19;8.10;68.70
43894;DHT22;29556;50.846;4.442;2023-02-24T08:37:50;7.90;69.20
43894;DHT22;29556;50.846;4.442;2023-02-24T08:40:17;7.90;70.60
43894;DHT22;29556;50.846;4.442;2023-02-24T08:43:07;7.80;70.60
43894;DHT22;29556;50.846;4.442;2023-02-24T08:45:53;7.80;71.20
43894;DHT22;29556;50.846;4.442;2023-02-24T08:48:46;7.90;72.30
43894;DHT22;29556;50.846;4.442;2023-02-24T08:53:49;8.20;71.30
43894;DHT22;29556;50.846;4.442;2023-02-24T08:56:25;8.20;70.50
43894;DHT22;29556;50.846;4.442;2023-02-24T08:58:57;8.20;69.90
43894;DHT22;29556;50.846;4.442;2023-02-24T09:01:28;8.20;70.80
43894;DHT22;29556;50.846;4.442;2023-02-24T09:04:01;8.30;70.50
43894;DHT22;29556;50.846;4.442;2023-02-24T09:06:41;8.40;69.70
43894;DHT22;29556;50.846;4.442;2023-02-24T09:09:08;8.20;69.00
43894;DHT22;29556;50.846;4.442;2023-02-24T09:11:54;8.20;69.60
43894;DHT22;29556;50.846;4.442;2023-02-24T09:14:26;8.00;70.00
43894;DHT22;29556;50.846;4.442;2023-02-24T09:16:52;8.00;70.10
43894;DHT22;29556;50.846;4.442;2023-02-24T09:19:48;8.00;70.00
43894;DHT22;29556;50.846;4.442;2023-02-24T09:22:19;8.10;70.60
43894;DHT22;29556;50.846;4.442;2023-02-24T09:25:13;8.20;70.60
43894;DHT22;29556;50.846;4.442;2023-02-24T09:28:04;8.20;69.80
43894;DHT22;29556;50.846;4.442;2023-02-24T09:30:35;8.30;70.30
43894;DHT22;29556;50.846;4.442;2023-02-24T09:35:45;8.20;69.60
43894;DHT22;29556;50.846;4.442;2023-02-24T09:38:12;8.20;69.40
43894;DHT22;29556;50.846;4.442;2023-02-24T09:40:44;8.20;70.30
43894;DHT22;29556;50.846;4.442;2023-02-24T09:43:25;8.40;71.10
43894;DHT22;29556;50.846;4.442;2023-02-24T09:46:00;8.40;69.40
43894;DHT22;29556;50.846;4.442;2023-02-24T09:48:50;8.60;70.70
43894;DHT22;29556;50.846;4.442;2023-02-24T09:51:18;8.80;70.40
43894;DHT22;29556;50.846;4.442;2023-02-24T09:53:55;8.90;69.80
43894;DHT22;29556;50.846;4.442;2023-02-24T09:56:29;9.00;69.20
43894;DHT22;29556;50.846;4.442;2023-02-24T10:04:28;9.20;69.00
43894;DHT22;29556;50.846;4.442;2023-02-24T10:12:30;9.00;64.20
43894;DHT22;29556;50.846;4.442;2023-02-24T10:15:13;8.90;65.60
43894;DHT22;29556;50.846;4.442;2023-02-24T10:17:53;9.10;66.50
43894;DHT22;29556;50.846;4.442;2023-02-24T10:20:25;9.20;65.50
43894;DHT22;29556;50.846;4.442;2023-02-24T10:23:18;9.00;64.40
43894;DHT22;29556;50.846;4.442;2023-02-24T10:25:55;8.90;64.40
43894;DHT22;29556;50.846;4.442;2023-02-24T10:28:30;8.90;65.40
43894;DHT22;29556;50.846;4.442;2023-02-24T10:33:41;8.80;67.20
43894;DHT22;29556;50.846;4.442;2023-02-24T10:36:17;8.70;65.50
43894;DHT22;29556;50.846;4.442;2023-02-24T10:38:44;8.70;65.70
43894;DHT22;29556;50.846;4.442;2023-02-24T10:41:12;8.70;66.30
43894;DHT22;29556;50.846;4.442;2023-02-24T10:43:39;8.80;67.70
43894;DHT22;29556;50.846;4.442;2023-02-24T10:46:31;9.00;67.30
43894;DHT22;29556;50.846;4.442;2023-02-24T10:49:01;9.10;66.30
43894;DHT22;29556;50.846;4.442;2023-02-24T10:51:38;8.90;65.00
43894;DHT22;29556;50.846;4.442;2023-02-24T10:54:22;8.80;65.40
43894;DHT22;29556;50.846;4.442;2023-02-24T10:57:01;8.80;67.20
43894;DHT22;29556;50.846;4.442;2023-02-24T11:00:19;8.90;67.10
43894;DHT22;29556;50.846;4.442;2023-02-24T11:03:05;8.80;66.90
43894;DHT22;29556;50.846;4.442;2023-02-24T11:05:38;8.90;66.30
43894;DHT22;29556;50.846;4.442;2023-02-24T11:08:14;9.00;67.20
43894;DHT22;29556;50.846;4.442;2023-02-24T11:11:01;9.10;67.10
43894;DHT22;29556;50.846;4.442;2023-02-24T11:13:32;9.10;65.80
43894;DHT22;29556;50.846;4.442;2023-02-24T11:16:17;9.00;65.50
43894;DHT22;29556;50.846;4.442;2023-02-24T11:19:19;9.20;67.30
43894;DHT22;29556;50.846;4.442;2023-02-24T11:21:46;9.20;66.00
43894;DHT22;29556;50.846;4.442;2023-02-24T11:24:16;9.00;66.20
43894;DHT22;29556;50.846;4.442;2023-02-24T11:26:43;9.10;67.00
43894;DHT22;29556;50.846;4.442;2023-02-24T11:32:10;9.00;67.00
43894;DHT22;29556;50.846;4.442;2023-02-24T11:37:28;9.10;66.70
43894;DHT22;29556;50.846;4.442;2023-02-24T11:43:09;9.20;65.50
43894;DHT22;29556;50.846;4.442;2023-02-24T11:45:44;9.20;65.20
43894;DHT22;29556;50.846;4.442;2023-02-24T11:48:16;9.20;65.10
43894;DHT22;29556;50.846;4.442;2023-02-24T12:06:38;10.10;64.00
43894;DHT22;29556;50.846;4.442;2023-02-24T12:09:17;9.90;63.00
43894;DHT22;29556;50.846;4.442;2023-02-24T12:14:35;10.00;64.20
43894;DHT22;29556;50.846;4.442;2023-02-24T12:19:59;9.90;64.10
43894;DHT22;29556;50.846;4.442;2023-02-24T12:22:36;9.80;65.10
43894;DHT22;29556;50.846;4.442;2023-02-24T12:25:18;10.00;64.90
43894;DHT22;29556;50.846;4.442;2023-02-24T12:28:13;10.00;64.70
43894;DHT22;29556;50.846;4.442;2023-02-24T12:31:12;9.90;64.30
43894;DHT22;29556;50.846;4.442;2023-02-24T12:34:03;9.90;64.40
43894;DHT22;29556;50.846;4.442;2023-02-24T12:39:20;9.80;64.60
43894;DHT22;29556;50.846;4.442;2023-02-24T12:47:03;9.90;65.10
43894;DHT22;29556;50.846;4.442;2023-02-24T12:57:50;10.10;65.30
43894;DHT22;29556;50.846;4.442;2023-02-24T13:03:54;10.10;65.30
43894;DHT22;29556;50.846;4.442;2023-02-24T13:11:58;10.00;66.00
43894;DHT22;29556;50.846;4.442;2023-02-24T13:14:37;10.20;66.50
43894;DHT22;29556;50.846;4.442;2023-02-24T13:19:40;10.50;65.20
43894;DHT22;29556;50.846;4.442;2023-02-24T13:24:54;10.40;66.00
43894;DHT22;29556;50.846;4.442;2023-02-24T13:27:34;10.30;66.40
43894;DHT22;29556;50.846;4.442;2023-02-24T13:32:39;10.20;67.90
43894;DHT22;29556;50.846;4.442;2023-02-24T13:37:42;9.90;68.80
43894;DHT22;29556;50.846;4.442;2023-02-24T13:40:26;9.90;69.70
43894;DHT22;29556;50.846;4.442;2023-02-24T13:56:47;10.10;69.80
43894;DHT22;29556;50.846;4.442;2023-02-24T14:02:15;10.00;70.80
43894;DHT22;29556;50.846;4.442;2023-02-24T14:04:50;9.90;71.70
43894;DHT22;29556;50.846;4.442;2023-02-24T14:07:25;9.80;72.50
43894;DHT22;29556;50.846;4.442;2023-02-24T14:09:59;9.90;73.10
43894;DHT22;29556;50.846;4.442;2023-02-24T14:12:33;9.90;73.10
43894;DHT22;29556;50.846;4.442;2023-02-24T14:15:01;9.80;74.70
43894;DHT22;29556;50.846;4.442;2023-02-24T14:17:31;9.60;75.80
43894;DHT22;29556;50.846;4.442;2023-02-24T14:20:13;9.50;76.80
43894;DHT22;29556;50.846;4.442;2023-02-24T14:22:47;9.50;77.00
43894;DHT22;29556;50.846;4.442;2023-02-24T14:25:15;9.60;77.40
43894;DHT22;29556;50.846;4.442;2023-02-24T14:27:43;9.50;77.40
43894;DHT22;29556;50.846;4.442;2023-02-24T14:30:24;9.60;78.00
43894;DHT22;29556;50.846;4.442;2023-02-24T14:32:50;9.60;78.60
43894;DHT22;29556;50.846;4.442;2023-02-24T14:35:25;9.60;78.90
43894;DHT22;29556;50.846;4.442;2023-02-24T14:37:52;9.70;79.40
43894;DHT22;29556;50.846;4.442;2023-02-24T14:40:17;9.70;79.60
43894;DHT22;29556;50.846;4.442;2023-02-24T14:42:48;9.70;79.80
43894;DHT22;29556;50.846;4.442;2023-02-24T14:45:23;9.80;79.70
43894;DHT22;29556;50.846;4.442;2023-02-24T14:47:51;9.60;80.80
43894;DHT22;29556;50.846;4.442;2023-02-24T14:50:23;9.60;82.40
43894;DHT22;29556;50.846;4.442;2023-02-24T14:53:04;9.60;83.50
43894;DHT22;29556;50.846;4.442;2023-02-24T14:55:38;9.60;84.40
43894;DHT22;29556;50.846;4.442;2023-02-24T14:58:05;9.70;84.90
43894;DHT22;29556;50.846;4.442;2023-02-24T15:00:40;9.60;85.50
43894;DHT22;29556;50.846;4.442;2023-02-24T15:03:31;9.60;86.20
43894;DHT22;29556;50.846;4.442;2023-02-24T15:06:03;9.60;86.70
43894;DHT22;29556;50.846;4.442;2023-02-24T15:08:39;9.60;86.50
43894;DHT22;29556;50.846;4.442;2023-02-24T15:11:17;9.50;86.30
43894;DHT22;29556;50.846;4.442;2023-02-24T15:14:00;9.60;86.60
43894;DHT22;29556;50.846;4.442;2023-02-24T15:16:38;9.50;87.00
43894;DHT22;29556;50.846;4.442;2023-02-24T15:19:30;9.60;87.30
43894;DHT22;29556;50.846;4.442;2023-02-24T15:21:57;9.60;87.00
43894;DHT22;29556;50.846;4.442;2023-02-24T15:24:33;9.50;87.10
43894;DHT22;29556;50.846;4.442;2023-02-24T15:27:02;9.30;87.60
43894;DHT22;29556;50.846;4.442;2023-02-24T15:29:44;9.30;88.30
43894;DHT22;29556;50.846;4.442;2023-02-24T15:32:23;9.40;88.60
43894;DHT22;29556;50.846;4.442;2023-02-24T15:34:50;9.40;88.40
43894;DHT22;29556;50.846;4.442;2023-02-24T15:37:22;9.40;88.30
43894;DHT22;29556;50.846;4.442;2023-02-24T15:39:50;9.40;88.90
43894;DHT22;29556;50.846;4.442;2023-02-24T15:42:24;9.40;88.90
43894;DHT22;29556;50.846;4.442;2023-02-24T15:44:57;9.40;88.90
43894;DHT22;29556;50.846;4.442;2023-02-24T15:47:27;9.40;88.90
43894;DHT22;29556;50.846;4.442;2023-02-24T15:49:54;9.40;88.50
43894;DHT22;29556;50.846;4.442;2023-02-24T15:52:26;9.30;88.40
43894;DHT22;29556;50.846;4.442;2023-02-24T15:54:53;9.30;88.80
43894;DHT22;29556;50.846;4.442;2023-02-24T15:57:20;9.40;89.20
43894;DHT22;29556;50.846;4.442;2023-02-24T15:59:46;9.40;88.90
43894;DHT22;29556;50.846;4.442;2023-02-24T16:02:15;9.50;89.00
43894;DHT22;29556;50.846;4.442;2023-02-24T16:04:42;9.50;88.60
43894;DHT22;29556;50.846;4.442;2023-02-24T16:07:16;9.60;88.40
43894;DHT22;29556;50.846;4.442;2023-02-24T16:09:44;9.60;88.20
43894;DHT22;29556;50.846;4.442;2023-02-24T16:12:47;9.50;87.80
43894;DHT22;29556;50.846;4.442;2023-02-24T16:15:26;9.60;88.40
43894;DHT22;29556;50.846;4.442;2023-02-24T16:17:53;9.50;87.60
43894;DHT22;29556;50.846;4.442;2023-02-24T16:20:22;9.50;87.60
43894;DHT22;29556;50.846;4.442;2023-02-24T16:23:01;9.50;87.80
43894;DHT22;29556;50.846;4.442;2023-02-24T16:25:29;9.50;87.80
43894;DHT22;29556;50.846;4.442;2023-02-24T16:27:57;9.60;87.60
43894;DHT22;29556;50.846;4.442;2023-02-24T16:30:26;9.50;87.60
43894;DHT22;29556;50.846;4.442;2023-02-24T16:32:55;9.40;87.40
43894;DHT22;29556;50.846;4.442;2023-02-24T16:35:22;9.40;87.90
43894;DHT22;29556;50.846;4.442;2023-02-24T16:37:48;9.30;87.70
43894;DHT22;29556;50.846;4.442;2023-02-24T16:40:26;9.40;88.00
43894;DHT22;29556;50.846;4.442;2023-02-24T16:42:54;9.40;87.70
43894;DHT22;29556;50.846;4.442;2023-02-24T16:45:21;9.30;87.70
43894;DHT22;29556;50.846;4.442;2023-02-24T16:47:50;9.50;87.90
43894;DHT22;29556;50.846;4.442;2023-02-24T16:50:23;9.60;87.80
43894;DHT22;29556;50.846;4.442;2023-02-24T16:52:50;9.50;87.30
43894;DHT22;29556;50.846;4.442;2023-02-24T16:55:17;9.40;87.20
43894;DHT22;29556;50.846;4.442;2023-02-24T16:57:43;9.40;87.80
43894;DHT22;29556;50.846;4.442;2023-02-24T17:00:10;9.30;87.70
43894;DHT22;29556;50.846;4.442;2023-02-24T17:02:39;9.30;88.30
43894;DHT22;29556;50.846;4.442;2023-02-24T17:05:05;9.40;88.30
43894;DHT22;29556;50.846;4.442;2023-02-24T17:07:30;9.40;88.60
43894;DHT22;29556;50.846;4.442;2023-02-24T17:09:56;9.40;88.60
43894;DHT22;29556;50.846;4.442;2023-02-24T17:12:22;9.40;88.30
43894;DHT22;29556;50.846;4.442;2023-02-24T17:14:47;9.40;88.10
43894;DHT22;29556;50.846;4.442;2023-02-24T17:17:13;9.50;88.50
43894;DHT22;29556;50.846;4.442;2023-02-24T17:19:39;9.50;88.30
43894;DHT22;29556;50.846;4.442;2023-02-24T17:22:04;9.40;87.70
43894;DHT22;29556;50.846;4.442;2023-02-24T17:24:30;9.50;87.20
43894;DHT22;29556;50.846;4.442;2023-02-24T17:26:56;9.40;86.70
43894;DHT22;29556;50.846;4.442;2023-02-24T17:29:24;9.40;86.60
43894;DHT22;29556;50.846;4.442;2023-02-24T17:31:50;9.40;86.80
43894;DHT22;29556;50.846;4.442;2023-02-24T17:34:15;9.40;86.30
43894;DHT22;29556;50.846;4.442;2023-02-24T17:36:41;9.40;86.40
43894;DHT22;29556;50.846;4.442;2023-02-24T17:39:06;9.20;86.70
43894;DHT22;29556;50.846;4.442;2023-02-24T17:41:33;9.20;86.90
43894;DHT22;29556;50.846;4.442;2023-02-24T17:43:58;9.20;86.90
43894;DHT22;29556;50.846;4.442;2023-02-24T17:46:24;9.20;86.90
43894;DHT22;29556;50.846;4.442;2023-02-24T17:48:50;9.30;87.10
43894;DHT22;29556;50.846;4.442;2023-02-24T17:51:18;9.20;87.40
43894;DHT22;29556;50.846;4.442;2023-02-24T17:53:44;9.30;87.10
43894;DHT22;29556;50.846;4.442;2023-02-24T17:56:10;9.30;87.00
43894;DHT22;29556;50.846;4.442;2023-02-24T17:58:36;9.30;87.30
43894;DHT22;29556;50.846;4.442;2023-02-24T18:01:03;9.30;87.30
43894;DHT22;29556;50.846;4.442;2023-02-24T18:03:34;9.20;87.60
43894;DHT22;29556;50.846;4.442;2023-02-24T18:06:02;9.10;87.10
43894;DHT22;29556;50.846;4.442;2023-02-24T18:08:28;9.10;87.60
43894;DHT22;29556;50.846;4.442;2023-02-24T18:10:55;9.00;87.30
43894;DHT22;29556;50.846;4.442;2023-02-24T18:13:21;9.00;87.20
43894;DHT22;29556;50.846;4.442;2023-02-24T18:15:47;9.10;87.50
43894;DHT22;29556;50.846;4.442;2023-02-24T18:18:12;9.10;87.00
43894;DHT22;29556;50.846;4.442;2023-02-24T18:20:41;9.00;87.10
43894;DHT22;29556;50.846;4.442;2023-02-24T18:23:08;9.00;87.10
43894;DHT22;29556;50.846;4.442;2023-02-24T18:25:33;9.00;86.70
43894;DHT22;29556;50.846;4.442;2023-02-24T18:27:59;9.00;86.50
43894;DHT22;29556;50.846;4.442;2023-02-24T18:30:25;8.90;86.70
43894;DHT22;29556;50.846;4.442;2023-02-24T18:32:50;8.90;86.20
43894;DHT22;29556;50.846;4.442;2023-02-24T18:35:16;9.00;86.20
43894;DHT22;29556;50.846;4.442;2023-02-24T18:37:47;8.80;85.70
43894;DHT22;29556;50.846;4.442;2023-02-24T18:40:18;8.80;86.20
43894;DHT22;29556;50.846;4.442;2023-02-24T18:42:47;8.80;85.70
43894;DHT22;29556;50.846;4.442;2023-02-24T18:45:20;8.80;85.70
43894;DHT22;29556;50.846;4.442;2023-02-24T18:47:46;8.60;85.50